sensor_id;sensor_type;location;lat;lon;timestamp;pressure;altitude;pressure_sealevel;temperature;humidity
65756;BME280;52489;47.502;18.940;2022-08-19T00:00:43;97673.97;;;26.79;43.56
65756;BME280;52489;47.502;18.940;2022-08-19T00:01:53;97668.97;;;26.81;43.46
65756;BME280;52489;47.502;18.940;2022-08-19T00:02:57;97678.47;;;26.86;43.29
65756;BME280;52489;47.502;18.940;2022-08-19T00:04:03;97673.50;;;26.84;43.36
65756;BME280;52489;47.502;18.940;2022-08-19T00:05:08;97677.78;;;26.82;43.42
65756;BME280;52489;47.502;18.940;2022-08-19T00:06:14;97673.59;;;26.81;43.44
65756;BME280;52489;47.502;18.940;2022-08-19T00:07:20;97667.72;;;26.86;43.23
65756;BME280;52489;47.502;18.940;2022-08-19T00:08:23;97681.28;;;26.78;43.41
65756;BME280;52489;47.502;18.940;2022-08-19T00:09:26;97680.09;;;26.80;43.47
65756;BME280;52489;47.502;18.940;2022-08-19T00:10:29;97671.38;;;26.75;43.58
65756;BME280;52489;47.502;18.940;2022-08-19T00:11:32;97669.03;;;26.77;43.45
65756;BME280;52489;47.502;18.940;2022-08-19T00:12:38;97672.41;;;26.82;43.25
65756;BME280;52489;47.502;18.940;2022-08-19T00:13:48;97670.16;;;26.80;43.40
65756;BME280;52489;47.502;18.940;2022-08-19T00:14:52;97660.91;;;26.81;43.36
65756;BME280;52489;47.502;18.940;2022-08-19T00:15:56;97662.13;;;26.76;43.45
65756;BME280;52489;47.502;18.940;2022-08-19T00:17:01;97665.84;;;26.83;43.28
65756;BME280;52489;47.502;18.940;2022-08-19T00:18:05;97672.75;;;26.84;43.20
65756;BME280;52489;47.502;18.940;2022-08-19T00:19:08;97667.38;;;26.84;43.24
65756;BME280;52489;47.502;18.940;2022-08-19T00:20:17;97674.28;;;26.85;43.25
65756;BME280;52489;47.502;18.940;2022-08-19T00:21:22;97672.47;;;26.78;43.43
65756;BME280;52489;47.502;18.940;2022-08-19T00:22:25;97676.34;;;26.77;43.49
65756;BME280;52489;47.502;18.940;2022-08-19T00:23:30;97662.63;;;26.71;43.49
65756;BME280;52489;47.502;18.940;2022-08-19T00:24:36;97671.78;;;26.74;43.50
65756;BME280;52489;47.502;18.940;2022-08-19T00:25:41;97675.91;;;26.78;43.40
65756;BME280;52489;47.502;18.940;2022-08-19T00:26:51;97668.53;;;26.83;43.25
65756;BME280;52489;47.502;18.940;2022-08-19T00:27:54;97666.41;;;26.74;43.38
65756;BME280;52489;47.502;18.940;2022-08-19T00:28:58;97679.56;;;26.68;43.65
65756;BME280;52489;47.502;18.940;2022-08-19T00:30:01;97677.22;;;26.70;43.62
65756;BME280;52489;47.502;18.940;2022-08-19T00:31:07;97675.47;;;26.60;43.90
65756;BME280;52489;47.502;18.940;2022-08-19T00:32:10;97669.28;;;26.63;43.83
65756;BME280;52489;47.502;18.940;2022-08-19T00:33:15;97674.66;;;26.63;43.78
65756;BME280;52489;47.502;18.940;2022-08-19T00:34:18;97666.94;;;26.65;43.58
65756;BME280;52489;47.502;18.940;2022-08-19T00:35:21;97666.94;;;26.65;43.65
65756;BME280;52489;47.502;18.940;2022-08-19T00:36:24;97668.47;;;26.66;43.63
65756;BME280;52489;47.502;18.940;2022-08-19T00:37:28;97666.53;;;26.67;43.63
65756;BME280;52489;47.502;18.940;2022-08-19T00:38:30;97663.09;;;26.66;43.59
65756;BME280;52489;47.502;18.940;2022-08-19T00:39:39;97663.91;;;26.63;43.70
65756;BME280;52489;47.502;18.940;2022-08-19T00:40:43;97670.72;;;26.68;43.57
65756;BME280;52489;47.502;18.940;2022-08-19T00:41:49;97671.16;;;26.66;43.59
65756;BME280;52489;47.502;18.940;2022-08-19T00:42:53;97661.97;;;26.64;43.71
65756;BME280;52489;47.502;18.940;2022-08-19T00:44:09;97662.19;;;26.73;43.48
65756;BME280;52489;47.502;18.940;2022-08-19T00:45:25;97666.94;;;26.65;43.61
65756;BME280;52489;47.502;18.940;2022-08-19T00:46:29;97666.94;;;26.65;43.68
65756;BME280;52489;47.502;18.940;2022-08-19T00:47:32;97661.63;;;26.62;43.80
65756;BME280;52489;47.502;18.940;2022-08-19T00:48:35;97661.69;;;26.58;43.84
65756;BME280;52489;47.502;18.940;2022-08-19T00:49:45;97658.47;;;26.67;43.63
65756;BME280;52489;47.502;18.940;2022-08-19T00:50:53;97656.66;;;26.60;43.92
65756;BME280;52489;47.502;18.940;2022-08-19T00:52:04;97654.09;;;26.53;44.02
65756;BME280;52489;47.502;18.940;2022-08-19T00:53:16;97651.31;;;26.60;43.75
65756;BME280;52489;47.502;18.940;2022-08-19T00:54:21;97659.19;;;26.47;44.05
65756;BME280;52489;47.502;18.940;2022-08-19T00:55:32;97664.53;;;26.47;44.08
65756;BME280;52489;47.502;18.940;2022-08-19T00:56:39;97654.59;;;26.44;44.11
65756;BME280;52489;47.502;18.940;2022-08-19T00:57:47;97658.00;;;26.48;44.02
65756;BME280;52489;47.502;18.940;2022-08-19T00:58:50;97658.31;;;26.54;43.84
65756;BME280;52489;47.502;18.940;2022-08-19T00:59:55;97660.56;;;26.55;43.88
65756;BME280;52489;47.502;18.940;2022-08-19T01:01:04;97660.94;;;26.58;43.77
65756;BME280;52489;47.502;18.940;2022-08-19T01:02:15;97661.00;;;26.54;43.82
65756;BME280;52489;47.502;18.940;2022-08-19T01:03:20;97669.56;;;26.45;44.09
65756;BME280;52489;47.502;18.940;2022-08-19T01:04:23;97670.03;;;26.40;44.13
65756;BME280;52489;47.502;18.940;2022-08-19T01:05:28;97667.94;;;26.51;43.88
65756;BME280;52489;47.502;18.940;2022-08-19T01:06:35;97668.34;;;26.50;43.88
65756;BME280;52489;47.502;18.940;2022-08-19T01:07:39;97660.37;;;26.43;43.99
65756;BME280;52489;47.502;18.940;2022-08-19T01:08:46;97666.06;;;26.48;43.84
65756;BME280;52489;47.502;18.940;2022-08-19T01:09:52;97659.19;;;26.47;43.89
65756;BME280;52489;47.502;18.940;2022-08-19T01:10:56;97653.69;;;26.54;43.62
65756;BME280;52489;47.502;18.940;2022-08-19T01:12:01;97664.91;;;26.49;43.76
65756;BME280;52489;47.502;18.940;2022-08-19T01:13:04;97662.50;;;26.55;43.63
65756;BME280;52489;47.502;18.940;2022-08-19T01:14:09;97654.94;;;26.46;43.78
65756;BME280;52489;47.502;18.940;2022-08-19T01:15:16;97663.91;;;26.40;43.99
65756;BME280;52489;47.502;18.940;2022-08-19T01:16:22;97653.00;;;26.27;44.33
65756;BME280;52489;47.502;18.940;2022-08-19T01:17:27;97645.25;;;26.29;44.22
65756;BME280;52489;47.502;18.940;2022-08-19T01:18:31;97645.22;;;26.32;44.14
65756;BME280;52489;47.502;18.940;2022-08-19T01:19:41;97653.22;;;26.36;44.00
65756;BME280;52489;47.502;18.940;2022-08-19T01:20:46;97651.75;;;26.31;44.15
65756;BME280;52489;47.502;18.940;2022-08-19T01:23:34;97652.41;;;26.39;43.96
65756;BME280;52489;47.502;18.940;2022-08-19T01:24:45;97653.22;;;26.36;44.00
65756;BME280;52489;47.502;18.940;2022-08-19T01:25:52;97657.06;;;26.35;43.97
65756;BME280;52489;47.502;18.940;2022-08-19T01:26:57;97645.56;;;26.35;44.04
65756;BME280;52489;47.502;18.940;2022-08-19T01:28:00;97651.06;;;26.27;44.20
65756;BME280;52489;47.502;18.940;2022-08-19T01:29:12;97649.06;;;26.31;44.23
65756;BME280;52489;47.502;18.940;2022-08-19T01:30:21;97651.00;;;26.31;44.00
65756;BME280;52489;47.502;18.940;2022-08-19T01:31:27;97651.50;;;26.22;44.24
65756;BME280;52489;47.502;18.940;2022-08-19T01:32:34;97654.88;;;26.26;44.15
65756;BME280;52489;47.502;18.940;2022-08-19T01:33:37;97645.09;;;26.40;43.69
65756;BME280;52489;47.502;18.940;2022-08-19T01:34:41;97647.56;;;26.30;43.95
65756;BME280;52489;47.502;18.940;2022-08-19T01:35:44;97657.19;;;26.28;44.23
65756;BME280;52489;47.502;18.940;2022-08-19T01:36:51;97642.19;;;26.30;44.03
65756;BME280;52489;47.502;18.940;2022-08-19T01:38:01;97643.81;;;26.24;44.17
65756;BME280;52489;47.502;18.940;2022-08-19T01:39:08;97641.94;;;26.21;44.26
65756;BME280;52489;47.502;18.940;2022-08-19T01:40:11;97638.16;;;26.19;44.43
65756;BME280;52489;47.502;18.940;2022-08-19T01:41:14;97638.16;;;26.19;44.39
65756;BME280;52489;47.502;18.940;2022-08-19T01:42:19;97644.69;;;26.18;44.48
65756;BME280;52489;47.502;18.940;2022-08-19T01:43:33;97628.16;;;26.19;44.36
65756;BME280;52489;47.502;18.940;2022-08-19T01:44:36;97632.84;;;26.15;44.47
65756;BME280;52489;47.502;18.940;2022-08-19T01:45:40;97630.78;;;26.23;44.17
65756;BME280;52489;47.502;18.940;2022-08-19T01:46:43;97627.47;;;26.15;44.38
65756;BME280;52489;47.502;18.940;2022-08-19T01:47:46;97625.31;;;26.06;44.58
65756;BME280;52489;47.502;18.940;2022-08-19T01:49:05;97625.94;;;26.14;44.28
65756;BME280;52489;47.502;18.940;2022-08-19T01:50:10;97617.25;;;26.06;44.56
65756;BME280;52489;47.502;18.940;2022-08-19T01:51:13;97619.12;;;26.09;44.50
65756;BME280;52489;47.502;18.940;2022-08-19T01:52:16;97621.22;;;26.22;44.08
65756;BME280;52489;47.502;18.940;2022-08-19T01:53:19;97619.38;;;26.19;44.11
65756;BME280;52489;47.502;18.940;2022-08-19T01:54:24;97621.28;;;26.18;44.24
65756;BME280;52489;47.502;18.940;2022-08-19T01:55:29;97614.81;;;26.16;44.32
65756;BME280;52489;47.502;18.940;2022-08-19T01:56:32;97611.25;;;26.22;43.98
65756;BME280;52489;47.502;18.940;2022-08-19T01:57:35;97600.94;;;26.21;44.01
65756;BME280;52489;47.502;18.940;2022-08-19T01:58:41;97606.34;;;26.17;44.20
65756;BME280;52489;47.502;18.940;2022-08-19T01:59:48;97607.97;;;26.11;44.32
65756;BME280;52489;47.502;18.940;2022-08-19T02:00:53;97607.63;;;26.09;44.29
65756;BME280;52489;47.502;18.940;2022-08-19T02:01:55;97599.53;;;26.13;44.22
65756;BME280;52489;47.502;18.940;2022-08-19T02:02:58;97604.12;;;26.12;44.32
65756;BME280;52489;47.502;18.940;2022-08-19T02:04:03;97595.03;;;26.06;44.43
65756;BME280;52489;47.502;18.940;2022-08-19T02:05:08;97601.84;;;26.10;44.44
65756;BME280;52489;47.502;18.940;2022-08-19T02:06:12;97597.38;;;26.04;44.56
65756;BME280;52489;47.502;18.940;2022-08-19T02:07:19;97592.00;;;26.04;44.51
65756;BME280;52489;47.502;18.940;2022-08-19T02:08:23;97593.22;;;25.99;44.75
65756;BME280;52489;47.502;18.940;2022-08-19T02:09:25;97598.13;;;26.04;44.38
65756;BME280;52489;47.502;18.940;2022-08-19T02:10:28;97600.06;;;26.04;44.45
65756;BME280;52489;47.502;18.940;2022-08-19T02:11:33;97597.44;;;26.00;44.65
65756;BME280;52489;47.502;18.940;2022-08-19T02:12:36;97597.44;;;26.00;44.45
65756;BME280;52489;47.502;18.940;2022-08-19T02:13:39;97595.88;;;25.99;44.49
65756;BME280;52489;47.502;18.940;2022-08-19T02:14:42;97596.25;;;26.01;44.53
65756;BME280;52489;47.502;18.940;2022-08-19T02:15:45;97600.94;;;25.97;44.58
65756;BME280;52489;47.502;18.940;2022-08-19T02:16:48;97602.72;;;26.04;44.38
65756;BME280;52489;47.502;18.940;2022-08-19T02:17:51;97602.78;;;26.00;44.44
65756;BME280;52489;47.502;18.940;2022-08-19T02:18:54;97610.50;;;25.98;44.37
65756;BME280;52489;47.502;18.940;2022-08-19T02:19:57;97603.94;;;25.99;44.29
65756;BME280;52489;47.502;18.940;2022-08-19T02:20:59;97603.84;;;26.06;44.20
65756;BME280;52489;47.502;18.940;2022-08-19T02:22:02;97600.87;;;26.01;44.26
65756;BME280;52489;47.502;18.940;2022-08-19T02:23:06;97604.31;;;26.01;44.27
65756;BME280;52489;47.502;18.940;2022-08-19T02:24:17;97590.66;;;25.92;44.53
65756;BME280;52489;47.502;18.940;2022-08-19T02:25:20;97587.25;;;25.88;44.74
65756;BME280;52489;47.502;18.940;2022-08-19T02:26:23;97585.22;;;25.96;44.81
65756;BME280;52489;47.502;18.940;2022-08-19T02:27:26;97577.75;;;25.83;44.93
65756;BME280;52489;47.502;18.940;2022-08-19T02:28:29;97587.66;;;25.86;44.88
65756;BME280;52489;47.502;18.940;2022-08-19T02:29:31;97586.78;;;25.93;44.77
65756;BME280;52489;47.502;18.940;2022-08-19T02:30:34;97581.72;;;25.99;44.50
65756;BME280;52489;47.502;18.940;2022-08-19T02:31:37;97584.22;;;25.86;45.04
65756;BME280;52489;47.502;18.940;2022-08-19T02:32:40;97583.91;;;25.80;45.26
65756;BME280;52489;47.502;18.940;2022-08-19T02:33:47;97585.41;;;25.81;44.99
65756;BME280;52489;47.502;18.940;2022-08-19T02:34:50;97599.91;;;25.87;44.77
65756;BME280;52489;47.502;18.940;2022-08-19T02:35:52;97597.94;;;25.92;44.68
65756;BME280;52489;47.502;18.940;2022-08-19T02:36:55;97598.13;;;25.77;45.08
65756;BME280;52489;47.502;18.940;2022-08-19T02:38:04;97596.94;;;25.82;45.07
65756;BME280;52489;47.502;18.940;2022-08-19T02:39:26;97597.72;;;25.79;45.32
65756;BME280;52489;47.502;18.940;2022-08-19T02:40:30;97594.72;;;25.73;45.24
65756;BME280;52489;47.502;18.940;2022-08-19T02:41:36;97600.16;;;25.70;45.33
65756;BME280;52489;47.502;18.940;2022-08-19T02:42:39;97599.16;;;25.60;45.78
65756;BME280;52489;47.502;18.940;2022-08-19T02:43:43;97593.72;;;25.63;45.40
65756;BME280;52489;47.502;18.940;2022-08-19T02:45:07;97593.22;;;25.72;45.16
65756;BME280;52489;47.502;18.940;2022-08-19T02:46:36;97593.47;;;25.81;44.99
65756;BME280;52489;47.502;18.940;2022-08-19T02:47:39;97593.28;;;25.69;45.36
65756;BME280;52489;47.502;18.940;2022-08-19T02:48:42;97603.94;;;25.72;45.44
65756;BME280;52489;47.502;18.940;2022-08-19T02:49:45;97602.44;;;25.71;45.51
65756;BME280;52489;47.502;18.940;2022-08-19T02:50:51;97602.31;;;25.78;45.30
65756;BME280;52489;47.502;18.940;2022-08-19T02:51:57;97603.19;;;25.72;45.42
65756;BME280;52489;47.502;18.940;2022-08-19T02:53:00;97610.06;;;25.73;45.47
65756;BME280;52489;47.502;18.940;2022-08-19T02:54:04;97605.56;;;25.66;46.03
65756;BME280;52489;47.502;18.940;2022-08-19T02:55:07;97605.94;;;25.68;45.59
65756;BME280;52489;47.502;18.940;2022-08-19T02:56:10;97612.56;;;25.60;45.83
65756;BME280;52489;47.502;18.940;2022-08-19T02:57:13;97611.50;;;25.54;45.94
65756;BME280;52489;47.502;18.940;2022-08-19T02:58:16;97612.94;;;25.58;45.76
65756;BME280;52489;47.502;18.940;2022-08-19T02:59:20;97616.66;;;25.41;46.49
65756;BME280;52489;47.502;18.940;2022-08-19T03:00:24;97615.13;;;25.40;46.41
65756;BME280;52489;47.502;18.940;2022-08-19T03:01:30;97613.69;;;25.32;46.94
65756;BME280;52489;47.502;18.940;2022-08-19T03:02:33;97614.78;;;25.38;46.52
65756;BME280;52489;47.502;18.940;2022-08-19T03:03:37;97611.94;;;25.49;46.00
65756;BME280;52489;47.502;18.940;2022-08-19T03:04:40;97609.22;;;25.52;45.83
65756;BME280;52489;47.502;18.940;2022-08-19T03:05:45;97604.56;;;25.56;45.85
65756;BME280;52489;47.502;18.940;2022-08-19T03:06:58;97613.38;;;25.57;45.94
65756;BME280;52489;47.502;18.940;2022-08-19T03:08:13;97607.56;;;25.62;45.77
65756;BME280;52489;47.502;18.940;2022-08-19T03:09:17;97609.50;;;25.58;45.87
65756;BME280;52489;47.502;18.940;2022-08-19T03:10:20;97615.69;;;25.55;46.00
65756;BME280;52489;47.502;18.940;2022-08-19T03:11:29;97614.25;;;25.50;46.15
65756;BME280;52489;47.502;18.940;2022-08-19T03:12:36;97620.41;;;25.47;46.06
65756;BME280;52489;47.502;18.940;2022-08-19T03:13:39;97623.69;;;25.58;45.87
65756;BME280;52489;47.502;18.940;2022-08-19T03:14:41;97624.66;;;25.72;45.40
65756;BME280;52489;47.502;18.940;2022-08-19T03:15:46;97626.34;;;25.62;45.85
65756;BME280;52489;47.502;18.940;2022-08-19T03:16:51;97626.41;;;25.55;45.87
65756;BME280;52489;47.502;18.940;2022-08-19T03:17:54;97621.00;;;25.58;45.82
65756;BME280;52489;47.502;18.940;2022-08-19T03:18:58;97629.56;;;25.50;46.28
65756;BME280;52489;47.502;18.940;2022-08-19T03:20:04;97626.16;;;25.46;46.89
65756;BME280;52489;47.502;18.940;2022-08-19T03:21:07;97632.34;;;25.42;47.18
65756;BME280;52489;47.502;18.940;2022-08-19T03:22:13;97636.19;;;25.41;47.06
65756;BME280;52489;47.502;18.940;2022-08-19T03:23:16;97634.47;;;25.55;45.97
65756;BME280;52489;47.502;18.940;2022-08-19T03:24:19;97631.03;;;25.54;45.96
65756;BME280;52489;47.502;18.940;2022-08-19T03:25:22;97627.78;;;25.39;46.63
65756;BME280;52489;47.502;18.940;2022-08-19T03:26:25;97625.91;;;25.36;46.80
65756;BME280;52489;47.502;18.940;2022-08-19T03:27:28;97625.22;;;25.29;47.82
65756;BME280;52489;47.502;18.940;2022-08-19T03:28:36;97629.84;;;25.28;47.32
65756;BME280;52489;47.502;18.940;2022-08-19T03:29:39;97631.00;;;25.27;46.99
65756;BME280;52489;47.502;18.940;2022-08-19T03:30:57;97632.88;;;25.30;47.11
65756;BME280;52489;47.502;18.940;2022-08-19T03:32:04;97639.44;;;25.26;47.44
65756;BME280;52489;47.502;18.940;2022-08-19T03:33:09;97639.84;;;25.24;47.87
65756;BME280;52489;47.502;18.940;2022-08-19T03:34:23;97643.72;;;25.19;47.36
65756;BME280;52489;47.502;18.940;2022-08-19T03:35:30;97644.41;;;25.27;46.92
65756;BME280;52489;47.502;18.940;2022-08-19T03:36:32;97642.78;;;25.33;46.69
65756;BME280;52489;47.502;18.940;2022-08-19T03:37:35;97647.09;;;25.27;47.08
65756;BME280;52489;47.502;18.940;2022-08-19T03:38:45;97644.72;;;25.33;46.83
65756;BME280;52489;47.502;18.940;2022-08-19T03:39:48;97644.03;;;25.25;47.25
65756;BME280;52489;47.502;18.940;2022-08-19T03:40:51;97642.66;;;25.13;48.23
65756;BME280;52489;47.502;18.940;2022-08-19T03:41:54;97633.81;;;25.16;48.08
65756;BME280;52489;47.502;18.940;2022-08-19T03:43:22;97646.81;;;25.18;48.16
65756;BME280;52489;47.502;18.940;2022-08-19T03:44:25;97637.72;;;25.08;48.69
65756;BME280;52489;47.502;18.940;2022-08-19T03:45:28;97631.31;;;24.98;48.13
65756;BME280;52489;47.502;18.940;2022-08-19T03:46:32;97641.19;;;25.05;48.28
65756;BME280;52489;47.502;18.940;2022-08-19T03:47:35;97650.09;;;24.95;48.81
65756;BME280;52489;47.502;18.940;2022-08-19T03:48:40;97649.75;;;24.93;48.45
65756;BME280;52489;47.502;18.940;2022-08-19T03:49:44;97650.50;;;24.93;48.52
65756;BME280;52489;47.502;18.940;2022-08-19T03:50:47;97656.34;;;24.85;48.76
65756;BME280;52489;47.502;18.940;2022-08-19T03:51:50;97658.25;;;24.84;48.94
65756;BME280;52489;47.502;18.940;2022-08-19T03:52:52;97665.91;;;24.86;49.26
65756;BME280;52489;47.502;18.940;2022-08-19T03:53:56;97663.97;;;24.86;48.83
65756;BME280;52489;47.502;18.940;2022-08-19T03:55:00;97658.25;;;24.88;49.39
65756;BME280;52489;47.502;18.940;2022-08-19T03:56:03;97661.72;;;24.81;50.13
65756;BME280;52489;47.502;18.940;2022-08-19T03:57:06;97657.25;;;24.71;49.83
65756;BME280;52489;47.502;18.940;2022-08-19T03:58:10;97652.31;;;24.66;49.96
65756;BME280;52489;47.502;18.940;2022-08-19T03:59:25;97640.06;;;24.68;49.86
65756;BME280;52489;47.502;18.940;2022-08-19T04:00:28;97646.56;;;24.67;49.64
65756;BME280;52489;47.502;18.940;2022-08-19T04:01:31;97641.75;;;24.51;50.48
65756;BME280;52489;47.502;18.940;2022-08-19T04:02:36;97641.41;;;24.49;50.68
65756;BME280;52489;47.502;18.940;2022-08-19T04:03:44;97643.63;;;24.58;50.25
65756;BME280;52489;47.502;18.940;2022-08-19T04:04:48;97645.22;;;24.48;50.40
65756;BME280;52489;47.502;18.940;2022-08-19T04:05:51;97655.13;;;24.55;50.17
65756;BME280;52489;47.502;18.940;2022-08-19T04:06:54;97651.19;;;24.67;49.58
65756;BME280;52489;47.502;18.940;2022-08-19T04:07:57;97657.72;;;24.62;49.63
65756;BME280;52489;47.502;18.940;2022-08-19T04:09:04;97662.06;;;24.45;50.27
65756;BME280;52489;47.502;18.940;2022-08-19T04:10:08;97660.91;;;24.50;50.47
65756;BME280;52489;47.502;18.940;2022-08-19T04:11:14;97654.34;;;24.55;49.85
65756;BME280;52489;47.502;18.940;2022-08-19T04:12:17;97660.53;;;24.48;50.37
65756;BME280;52489;47.502;18.940;2022-08-19T04:13:21;97666.25;;;24.50;50.48
65756;BME280;52489;47.502;18.940;2022-08-19T04:14:29;97667.47;;;24.38;50.74
65756;BME280;52489;47.502;18.940;2022-08-19T04:15:39;97670.19;;;24.35;50.70
65756;BME280;52489;47.502;18.940;2022-08-19T04:16:44;97668.59;;;24.37;50.62
65756;BME280;52489;47.502;18.940;2022-08-19T04:17:50;97665.50;;;24.46;50.34
65756;BME280;52489;47.502;18.940;2022-08-19T04:18:52;97669.69;;;24.50;50.37
65756;BME280;52489;47.502;18.940;2022-08-19T04:19:59;97670.84;;;24.46;50.50
65756;BME280;52489;47.502;18.940;2022-08-19T04:21:16;97677.75;;;24.47;50.43
65756;BME280;52489;47.502;18.940;2022-08-19T04:22:19;97676.25;;;24.42;50.62
65756;BME280;52489;47.502;18.940;2022-08-19T04:23:22;97663.19;;;24.48;50.33
65756;BME280;52489;47.502;18.940;2022-08-19T04:24:25;97662.03;;;24.49;50.38
65756;BME280;52489;47.502;18.940;2022-08-19T04:25:28;97660.56;;;24.41;50.59
65756;BME280;52489;47.502;18.940;2022-08-19T04:26:34;97660.19;;;24.39;50.69
65756;BME280;52489;47.502;18.940;2022-08-19T04:27:37;97664.41;;;24.36;51.14
65756;BME280;52489;47.502;18.940;2022-08-19T04:28:40;97668.22;;;24.39;50.75
65756;BME280;52489;47.502;18.940;2022-08-19T04:29:43;97661.34;;;24.38;50.81
65756;BME280;52489;47.502;18.940;2022-08-19T04:30:49;97664.00;;;24.45;50.87
65756;BME280;52489;47.502;18.940;2022-08-19T04:31:54;97668.28;;;24.32;50.89
65756;BME280;52489;47.502;18.940;2022-08-19T04:33:00;97671.31;;;24.34;51.11
65756;BME280;52489;47.502;18.940;2022-08-19T04:34:09;97668.97;;;24.43;50.71
65756;BME280;52489;47.502;18.940;2022-08-19T04:35:16;97675.06;;;24.47;50.43
65756;BME280;52489;47.502;18.940;2022-08-19T04:36:31;97674.34;;;24.39;51.02
65756;BME280;52489;47.502;18.940;2022-08-19T04:37:35;97674.31;;;24.46;50.76
65756;BME280;52489;47.502;18.940;2022-08-19T04:38:37;97669.31;;;24.48;50.31
65756;BME280;52489;47.502;18.940;2022-08-19T04:39:40;97681.56;;;24.46;50.55
65756;BME280;52489;47.502;18.940;2022-08-19T04:41:04;97676.22;;;24.46;50.60
65756;BME280;52489;47.502;18.940;2022-08-19T04:42:25;97680.06;;;24.45;50.71
65756;BME280;52489;47.502;18.940;2022-08-19T04:43:44;97679.31;;;24.44;50.53
65756;BME280;52489;47.502;18.940;2022-08-19T04:44:51;97673.56;;;24.39;50.68
65756;BME280;52489;47.502;18.940;2022-08-19T04:45:55;97677.72;;;24.50;50.54
65756;BME280;52489;47.502;18.940;2022-08-19T04:47:03;97675.75;;;24.55;50.61
65756;BME280;52489;47.502;18.940;2022-08-19T04:48:12;97662.91;;;24.35;51.00
65756;BME280;52489;47.502;18.940;2022-08-19T04:49:28;97664.03;;;24.34;51.18
65756;BME280;52489;47.502;18.940;2022-08-19T04:50:32;97663.63;;;24.39;50.87
65756;BME280;52489;47.502;18.940;2022-08-19T04:51:35;97670.19;;;24.35;50.83
65756;BME280;52489;47.502;18.940;2022-08-19T04:52:39;97658.38;;;24.28;51.00
65756;BME280;52489;47.502;18.940;2022-08-19T04:53:45;97663.28;;;24.34;51.00
65756;BME280;52489;47.502;18.940;2022-08-19T04:54:48;97670.97;;;24.28;51.20
65756;BME280;52489;47.502;18.940;2022-08-19T04:55:51;97666.72;;;24.34;50.88
65756;BME280;52489;47.502;18.940;2022-08-19T04:56:54;97669.06;;;24.32;51.30
65756;BME280;52489;47.502;18.940;2022-08-19T04:57:57;97675.87;;;24.40;50.79
65756;BME280;52489;47.502;18.940;2022-08-19T04:59:01;97673.28;;;24.29;51.06
65756;BME280;52489;47.502;18.940;2022-08-19T05:00:09;97676.25;;;24.42;50.84
65756;BME280;52489;47.502;18.940;2022-08-19T05:01:14;97672.41;;;24.40;51.17
65756;BME280;52489;47.502;18.940;2022-08-19T05:02:16;97678.94;;;24.42;50.74
65756;BME280;52489;47.502;18.940;2022-08-19T05:03:20;97675.78;;;24.51;50.43
65756;BME280;52489;47.502;18.940;2022-08-19T05:04:23;97670.44;;;24.51;50.45
65756;BME280;52489;47.502;18.940;2022-08-19T05:05:25;97683.00;;;24.58;50.33
65756;BME280;52489;47.502;18.940;2022-08-19T05:06:28;97679.56;;;24.57;50.39
65756;BME280;52489;47.502;18.940;2022-08-19T05:07:34;97679.22;;;24.55;50.80
65756;BME280;52489;47.502;18.940;2022-08-19T05:08:38;97674.63;;;24.52;50.54
65756;BME280;52489;47.502;18.940;2022-08-19T05:09:43;97679.22;;;24.51;50.45
65756;BME280;52489;47.502;18.940;2022-08-19T05:11:00;97668.06;;;24.60;50.54
65756;BME280;52489;47.502;18.940;2022-08-19T05:12:03;97668.37;;;24.66;50.12
65756;BME280;52489;47.502;18.940;2022-08-19T05:13:06;97678.63;;;24.74;49.96
65756;BME280;52489;47.502;18.940;2022-08-19T05:14:11;97679.81;;;24.73;49.93
65756;BME280;52489;47.502;18.940;2022-08-19T05:15:15;97670.69;;;24.67;50.04
65756;BME280;52489;47.502;18.940;2022-08-19T05:16:20;97680.16;;;24.75;49.93
65756;BME280;52489;47.502;18.940;2022-08-19T05:17:27;97670.88;;;24.84;49.71
65756;BME280;52489;47.502;18.940;2022-08-19T05:18:38;97674.78;;;24.75;49.91
65756;BME280;52489;47.502;18.940;2022-08-19T05:20:01;97671.31;;;24.79;49.85
65756;BME280;52489;47.502;18.940;2022-08-19T05:21:22;97668.63;;;24.82;49.69
65756;BME280;52489;47.502;18.940;2022-08-19T05:22:45;97671.25;;;24.86;49.53
65756;BME280;52489;47.502;18.940;2022-08-19T05:23:48;97664.06;;;24.75;49.69
65756;BME280;52489;47.502;18.940;2022-08-19T05:24:51;97669.41;;;24.79;49.71
65756;BME280;52489;47.502;18.940;2022-08-19T05:26:13;97671.63;;;24.88;49.64
65756;BME280;52489;47.502;18.940;2022-08-19T05:27:16;97676.22;;;24.87;49.43
65756;BME280;52489;47.502;18.940;2022-08-19T05:28:20;97677.78;;;24.85;50.25
65756;BME280;52489;47.502;18.940;2022-08-19T05:29:26;97671.97;;;24.90;49.57
65756;BME280;52489;47.502;18.940;2022-08-19T05:30:37;97670.38;;;24.96;49.50
65756;BME280;52489;47.502;18.940;2022-08-19T05:31:49;97673.09;;;24.92;49.66
65756;BME280;52489;47.502;18.940;2022-08-19T05:32:52;97671.13;;;25.00;49.29
65756;BME280;52489;47.502;18.940;2022-08-19T05:33:56;97680.22;;;25.06;49.17
65756;BME280;52489;47.502;18.940;2022-08-19T05:35:01;97662.56;;;25.12;48.67
65756;BME280;52489;47.502;18.940;2022-08-19T05:36:04;97669.09;;;25.11;48.99
65756;BME280;52489;47.502;18.940;2022-08-19T05:37:08;97675.13;;;25.19;48.50
65756;BME280;52489;47.502;18.940;2022-08-19T05:38:11;97680.88;;;25.21;48.66
65756;BME280;52489;47.502;18.940;2022-08-19T05:39:18;97688.09;;;25.24;48.39
65756;BME280;52489;47.502;18.940;2022-08-19T05:40:25;97680.00;;;25.28;48.23
65756;BME280;52489;47.502;18.940;2022-08-19T05:41:28;97682.16;;;25.40;48.16
65756;BME280;52489;47.502;18.940;2022-08-19T05:42:31;97684.47;;;25.41;48.02
65756;BME280;52489;47.502;18.940;2022-08-19T05:43:34;97684.09;;;25.39;48.03
65756;BME280;52489;47.502;18.940;2022-08-19T05:44:40;97685.16;;;25.46;48.18
65756;BME280;52489;47.502;18.940;2022-08-19T05:45:46;97677.84;;;25.50;48.06